createdAt,value
2018-02-16T00:00:48.949Z,17.00
2018-02-16T00:03:15.694Z,17.90
2018-02-16T00:05:42.369Z,19.03
2018-02-16T00:08:09.081Z,18.73
2018-02-16T00:10:35.996Z,19.73
2018-02-16T00:13:02.717Z,21.10
2018-02-16T00:15:29.431Z,19.70
2018-02-16T00:17:56.130Z,21.50
2018-02-16T00:20:22.817Z,20.10
2018-02-16T00:22:49.669Z,19.77
2018-02-16T00:25:16.752Z,19.40
2018-02-16T00:27:43.824Z,20.23
2018-02-16T00:30:10.611Z,19.50
2018-02-16T00:32:37.342Z,18.37
2018-02-16T00:35:04.060Z,19.67
2018-02-16T00:37:30.878Z,18.23
2018-02-16T00:39:58.077Z,18.30
2018-02-16T00:42:24.765Z,19.27
2018-02-16T00:44:51.479Z,18.63
2018-02-16T00:47:18.164Z,18.27
2018-02-16T00:49:44.882Z,18.47
2018-02-16T00:52:11.562Z,18.90
2018-02-16T00:54:38.265Z,15.83
2018-02-16T00:57:04.946Z,16.17
2018-02-16T00:59:31.652Z,17.20
2018-02-16T01:01:58.400Z,16.33
2018-02-16T01:04:25.070Z,15.00
2018-02-16T01:06:51.778Z,15.97
2018-02-16T01:09:18.492Z,14.67
2018-02-16T01:11:45.269Z,14.70
2018-02-16T01:14:11.955Z,13.40
2018-02-16T01:16:38.646Z,13.80
2018-02-16T01:19:05.328Z,12.90
2018-02-16T01:21:32.029Z,12.37
2018-02-16T01:23:58.766Z,13.00
2018-02-16T01:26:25.503Z,11.60
2018-02-16T01:28:52.166Z,10.50
2018-02-16T01:31:19.780Z,10.40
2018-02-16T01:33:46.515Z,8.27
2018-02-16T01:36:13.179Z,9.83
2018-02-16T01:38:39.858Z,8.87
2018-02-16T01:41:06.550Z,8.80
2018-02-16T01:43:33.223Z,9.30
2018-02-16T01:45:59.978Z,9.43
2018-02-16T01:48:26.666Z,8.43
2018-02-16T01:50:53.396Z,8.30
2018-02-16T01:53:20.083Z,8.10
2018-02-16T01:55:46.769Z,7.67
2018-02-16T01:58:13.474Z,6.70
2018-02-16T02:00:40.162Z,7.00
2018-02-16T02:03:06.852Z,7.03
2018-02-16T02:05:33.555Z,7.30
2018-02-16T02:08:00.236Z,6.67
2018-02-16T02:10:26.981Z,6.83
2018-02-16T02:12:53.731Z,8.07
2018-02-16T02:15:20.461Z,7.63
2018-02-16T02:17:47.192Z,8.33
2018-02-16T02:20:13.939Z,8.70
2018-02-16T02:22:40.806Z,9.63
2018-02-16T02:25:07.742Z,10.20
2018-02-16T02:27:34.779Z,10.20
2018-02-16T02:30:01.504Z,11.10
2018-02-16T02:32:28.214Z,11.47
2018-02-16T02:34:55.159Z,12.27
2018-02-16T02:37:22.174Z,11.87
2018-02-16T02:39:48.890Z,11.80
2018-02-16T02:42:15.708Z,12.60
2018-02-16T02:44:42.461Z,12.90
2018-02-16T02:47:09.137Z,13.97
2018-02-16T02:49:35.834Z,16.30
2018-02-16T02:52:02.540Z,18.60
2018-02-16T02:54:29.298Z,16.77
2018-02-16T02:56:56.026Z,17.40
2018-02-16T02:59:22.748Z,18.60
2018-02-16T03:01:49.517Z,19.37
2018-02-16T03:04:16.214Z,19.50
2018-02-16T03:06:42.896Z,20.43
2018-02-16T03:09:09.600Z,20.70
2018-02-16T03:11:36.367Z,21.13
2018-02-16T03:14:03.083Z,20.87
2018-02-16T03:16:29.779Z,19.60
2018-02-16T03:18:56.514Z,22.67
2018-02-16T03:21:23.221Z,20.73
2018-02-16T03:23:49.946Z,22.20
2018-02-16T03:26:16.676Z,19.43
2018-02-16T03:28:43.353Z,20.60
2018-02-16T03:31:10.057Z,18.53
2018-02-16T03:33:36.731Z,19.67
2018-02-16T03:36:03.447Z,19.23
2018-02-16T03:38:30.262Z,17.70
2018-02-16T03:40:56.960Z,17.87
2018-02-16T03:43:23.747Z,17.03
2018-02-16T03:45:50.467Z,16.30
2018-02-16T03:48:17.253Z,15.10
2018-02-16T03:50:43.947Z,14.13
2018-02-16T03:53:10.674Z,13.33
2018-02-16T03:55:37.574Z,12.93
2018-02-16T03:58:04.289Z,11.50
2018-02-16T04:00:30.982Z,13.07
2018-02-16T04:02:57.676Z,12.60
2018-02-16T04:05:24.351Z,12.30
2018-02-16T04:07:51.064Z,12.10
2018-02-16T04:10:17.744Z,11.87
2018-02-16T04:12:44.444Z,12.47
2018-02-16T04:15:11.170Z,11.00
2018-02-16T04:17:38.017Z,11.50
2018-02-16T04:20:04.734Z,13.10
2018-02-16T04:22:31.405Z,10.73
2018-02-16T04:24:58.130Z,11.43
2018-02-16T04:27:24.864Z,12.17
2018-02-16T04:29:51.560Z,10.00
2018-02-16T04:32:18.339Z,10.90
2018-02-16T04:34:45.015Z,11.90
2018-02-16T04:37:11.689Z,11.10
2018-02-16T04:39:38.394Z,10.80
2018-02-16T04:42:05.112Z,10.50
2018-02-16T04:44:31.791Z,10.60
2018-02-16T04:46:58.497Z,11.73
2018-02-16T04:49:25.221Z,11.43
2018-02-16T04:51:51.929Z,11.20
2018-02-16T04:54:18.755Z,12.50
2018-02-16T04:56:45.476Z,10.80
2018-02-16T04:59:12.176Z,11.00
2018-02-16T05:01:38.886Z,10.70
2018-02-16T05:04:05.595Z,11.70
2018-02-16T05:06:32.293Z,11.77
2018-02-16T05:08:58.982Z,12.27
2018-02-16T05:11:25.678Z,12.80
2018-02-16T05:13:52.420Z,11.03
2018-02-16T05:16:19.131Z,12.37
2018-02-16T05:18:45.850Z,11.90
2018-02-16T05:21:12.533Z,12.10
2018-02-16T05:23:39.234Z,12.60
2018-02-16T05:26:05.954Z,13.17
2018-02-16T05:28:32.646Z,13.10
2018-02-16T05:30:59.355Z,13.77
2018-02-16T05:33:26.040Z,13.37
2018-02-16T05:35:52.762Z,13.10
2018-02-16T05:38:20.129Z,13.07
2018-02-16T05:40:46.885Z,15.83
2018-02-16T05:43:13.590Z,15.20
2018-02-16T05:45:40.294Z,15.33
2018-02-16T05:48:06.999Z,14.50
2018-02-16T05:50:33.712Z,13.73
2018-02-16T05:53:00.409Z,14.80
2018-02-16T05:55:27.125Z,13.97
2018-02-16T05:57:53.834Z,14.50
2018-02-16T06:00:20.531Z,14.70
2018-02-16T06:02:47.437Z,15.67
2018-02-16T06:05:14.128Z,15.03
2018-02-16T06:07:40.841Z,14.40
2018-02-16T06:10:07.612Z,14.70
2018-02-16T06:12:34.571Z,16.17
2018-02-16T06:15:01.277Z,15.47
2018-02-16T06:17:27.951Z,14.20
2018-02-16T06:19:54.668Z,15.63
2018-02-16T06:22:21.383Z,13.27
2018-02-16T06:24:48.090Z,15.13
2018-02-16T06:27:14.844Z,15.60
2018-02-16T06:29:41.609Z,14.50
2018-02-16T06:32:08.400Z,15.77
2018-02-16T06:34:35.146Z,15.83
2018-02-16T06:37:02.315Z,13.60
2018-02-16T06:39:29.064Z,15.20
2018-02-16T06:41:56.050Z,14.17
2018-02-16T06:44:22.764Z,13.43
2018-02-16T06:46:49.536Z,15.60
2018-02-16T06:49:16.286Z,13.43
2018-02-16T06:51:43.061Z,13.27
2018-02-16T06:54:09.854Z,13.67
2018-02-16T06:56:37.174Z,13.20
2018-02-16T06:59:03.898Z,14.23
2018-02-16T07:01:32.788Z,13.57
2018-02-16T07:04:09.003Z,12.17
2018-02-16T07:06:42.154Z,11.50
2018-02-16T07:09:08.881Z,12.60
2018-02-16T07:11:35.661Z,11.60
2018-02-16T07:14:02.347Z,13.10
2018-02-16T07:16:29.047Z,12.90
2018-02-16T07:18:55.750Z,11.50
2018-02-16T07:21:22.577Z,11.70
2018-02-16T07:23:49.427Z,12.50
2018-02-16T07:26:16.141Z,12.17
2018-02-16T07:28:42.867Z,10.47
2018-02-16T07:31:09.601Z,10.30
2018-02-16T07:33:36.380Z,10.17
2018-02-16T07:36:03.160Z,9.90
2018-02-16T07:38:29.959Z,10.40
2018-02-16T07:40:56.688Z,9.80
2018-02-16T07:43:24.251Z,9.70
2018-02-16T07:45:50.950Z,9.23
2018-02-16T07:48:17.665Z,9.13
2018-02-16T07:50:44.685Z,8.40
2018-02-16T07:53:11.445Z,9.17
2018-02-16T07:55:38.219Z,9.80
2018-02-16T07:58:07.025Z,8.80
2018-02-16T08:00:37.197Z,8.30
2018-02-16T08:03:06.196Z,7.83
2018-02-16T08:05:32.904Z,7.80
2018-02-16T08:07:59.573Z,7.20
2018-02-16T08:10:26.303Z,7.97
2018-02-16T08:12:57.806Z,7.83
2018-02-16T08:15:35.942Z,7.80
2018-02-16T08:18:04.434Z,7.33
2018-02-16T08:20:31.199Z,6.10
2018-02-16T08:22:57.907Z,7.27
2018-02-16T08:25:25.823Z,6.00
2018-02-16T08:27:52.567Z,7.03
2018-02-16T08:30:19.568Z,7.00
2018-02-16T08:32:46.482Z,6.70
2018-02-16T08:35:13.140Z,6.47
2018-02-16T08:37:39.812Z,5.73
2018-02-16T08:40:07.158Z,6.33
2018-02-16T08:42:33.845Z,6.57
2018-02-16T08:45:00.822Z,6.33
2018-02-16T08:47:27.508Z,5.53
2018-02-16T08:49:54.265Z,6.17
2018-02-16T08:52:20.975Z,6.33
2018-02-16T08:54:47.777Z,6.70
2018-02-16T08:57:14.494Z,5.90
2018-02-16T08:59:41.168Z,6.73
2018-02-16T09:02:07.888Z,6.40
2018-02-16T09:04:34.666Z,6.63
2018-02-16T09:07:02.290Z,6.33
2018-02-16T09:09:29.283Z,6.97
2018-02-16T09:11:56.009Z,7.53
2018-02-16T09:14:23.088Z,7.67
2018-02-16T09:16:49.769Z,6.43
2018-02-16T09:19:16.723Z,6.70
2018-02-16T09:21:43.498Z,6.40
2018-02-16T09:24:10.223Z,6.90
2018-02-16T09:26:36.972Z,6.23
2018-02-16T09:29:03.672Z,6.83
2018-02-16T09:31:30.470Z,7.33
2018-02-16T09:33:57.180Z,6.27
2018-02-16T09:36:23.939Z,6.23
2018-02-16T09:38:51.919Z,6.63
2018-02-16T09:41:18.613Z,6.57
2018-02-16T09:43:45.336Z,7.00
2018-02-16T09:46:13.704Z,6.33
2018-02-16T09:48:40.805Z,7.33
2018-02-16T09:51:07.498Z,6.10
2018-02-16T09:53:34.176Z,6.70
2018-02-16T09:56:01.252Z,5.80
2018-02-16T09:58:27.931Z,5.73
2018-02-16T10:03:37.509Z,5.40
2018-02-16T10:06:04.245Z,5.90
2018-02-16T10:08:30.936Z,5.50
2018-02-16T10:10:58.784Z,5.37
2018-02-16T10:13:25.524Z,6.27
2018-02-16T10:15:52.275Z,6.27
2018-02-16T10:18:18.963Z,6.07
2018-02-16T10:20:45.682Z,6.30
2018-02-16T10:23:12.353Z,6.20
2018-02-16T10:25:39.066Z,6.47
2018-02-16T10:28:06.733Z,6.80
2018-02-16T10:30:33.507Z,7.17
2018-02-16T10:33:00.628Z,7.43
2018-02-16T10:35:27.979Z,7.47
2018-02-16T10:37:55.501Z,6.83
2018-02-16T10:40:22.695Z,6.97
2018-02-16T10:42:49.448Z,7.17
2018-02-16T10:45:16.175Z,7.20
2018-02-16T10:47:43.658Z,5.93
2018-02-16T10:50:10.613Z,6.50
2018-02-16T10:52:37.608Z,6.30
2018-02-16T10:55:04.540Z,6.00
2018-02-16T10:57:31.844Z,5.43
2018-02-16T10:59:59.163Z,5.60
2018-02-16T11:02:36.114Z,6.00
2018-02-16T11:05:12.356Z,5.83
2018-02-16T11:07:44.936Z,6.70
2018-02-16T11:10:11.955Z,6.73
2018-02-16T11:12:38.692Z,7.03
2018-02-16T11:15:07.520Z,7.30
2018-02-16T11:17:34.273Z,7.70
2018-02-16T11:20:00.998Z,6.40
2018-02-16T11:22:27.979Z,7.77
2018-02-16T11:24:55.068Z,6.63
2018-02-16T11:27:25.653Z,6.70
2018-02-16T11:29:52.577Z,7.30
2018-02-16T11:32:19.311Z,5.90
2018-02-16T11:34:46.059Z,6.77
2018-02-16T11:37:12.863Z,5.20
2018-02-16T11:39:40.021Z,6.03
2018-02-16T11:42:07.107Z,6.73
2018-02-16T11:44:33.963Z,5.87
2018-02-16T11:47:01.506Z,5.97
2018-02-16T11:49:28.242Z,6.80
2018-02-16T11:51:55.401Z,6.37
2018-02-16T11:54:22.971Z,5.47
2018-02-16T11:56:50.572Z,6.20
2018-02-16T11:59:17.463Z,6.90
2018-02-16T12:01:44.315Z,7.00
2018-02-16T12:04:11.189Z,6.97
2018-02-16T12:06:37.952Z,7.83
2018-02-16T12:09:05.083Z,7.10
2018-02-16T12:11:31.940Z,7.17
2018-02-16T12:14:07.114Z,6.27
2018-02-16T12:16:33.817Z,7.73
2018-02-16T12:19:00.538Z,8.07
2018-02-16T12:21:27.874Z,6.97
2018-02-16T12:23:54.672Z,7.73
2018-02-16T12:26:21.352Z,7.10
2018-02-16T12:28:48.071Z,8.77
2018-02-16T12:31:14.772Z,7.43
2018-02-16T12:33:41.466Z,6.80
2018-02-16T12:36:08.188Z,7.60
2018-02-16T12:38:34.949Z,7.00
2018-02-16T12:41:03.109Z,6.90
2018-02-16T12:46:04.101Z,8.17
2018-02-16T12:48:31.230Z,7.00
2018-02-16T12:53:37.535Z,7.40
2018-02-16T12:56:04.308Z,7.47
2018-02-16T12:58:31.046Z,7.50
2018-02-16T13:00:57.756Z,7.50
2018-02-16T13:03:24.507Z,8.53
2018-02-16T13:05:51.246Z,7.23
2018-02-16T13:08:18.075Z,7.43
2018-02-16T13:10:44.757Z,7.70
2018-02-16T13:13:11.530Z,6.67
2018-02-16T13:15:38.620Z,6.57
2018-02-16T13:18:07.245Z,6.80
2018-02-16T13:20:34.837Z,6.63
2018-02-16T13:23:03.133Z,7.33
2018-02-16T13:25:32.828Z,6.63
2018-02-16T13:28:01.164Z,6.93
2018-02-16T13:30:28.697Z,5.63
2018-02-16T13:32:58.670Z,5.33
2018-02-16T13:35:30.860Z,7.00
2018-02-16T13:37:59.605Z,6.40
2018-02-16T13:40:26.582Z,6.27
2018-02-16T13:42:54.265Z,7.10
2018-02-16T13:45:21.207Z,5.63
2018-02-16T13:47:47.911Z,6.00
2018-02-16T13:50:14.670Z,6.90
2018-02-16T13:52:41.443Z,5.93
2018-02-16T13:55:08.109Z,6.20
2018-02-16T13:57:34.824Z,8.20
2018-02-16T14:00:01.593Z,5.80
2018-02-16T14:02:29.903Z,6.50
2018-02-16T14:04:56.649Z,6.83
2018-02-16T14:07:23.431Z,6.23
2018-02-16T14:09:50.298Z,6.47
2018-02-16T14:12:17.018Z,6.70
2018-02-16T14:14:43.762Z,7.00
2018-02-16T14:17:10.583Z,6.50
2018-02-16T14:19:37.301Z,6.10
2018-02-16T14:22:04.168Z,5.93
2018-02-16T14:24:37.757Z,5.73
2018-02-16T14:27:04.493Z,5.57
2018-02-16T14:29:31.236Z,6.33
2018-02-16T14:31:57.912Z,6.07
2018-02-16T14:34:24.715Z,5.97
2018-02-16T14:36:51.843Z,6.00
2018-02-16T14:39:18.911Z,5.77
2018-02-16T14:41:47.954Z,6.90
2018-02-16T14:44:15.593Z,5.60
2018-02-16T14:46:42.291Z,6.27
2018-02-16T14:49:09.083Z,5.53
2018-02-16T14:51:36.093Z,5.90
2018-02-16T14:54:03.074Z,6.50
2018-02-16T14:56:29.907Z,5.53
2018-02-16T14:58:56.610Z,4.83
2018-02-16T15:01:23.664Z,6.10
2018-02-16T15:03:50.391Z,5.10
2018-02-16T15:06:17.084Z,4.73
2018-02-16T15:08:43.927Z,5.10
2018-02-16T15:11:10.619Z,4.10
2018-02-16T15:13:37.545Z,4.20
2018-02-16T15:16:04.353Z,3.37
2018-02-16T15:18:31.464Z,3.37
2018-02-16T15:20:58.287Z,3.10
2018-02-16T15:23:25.068Z,2.30
2018-02-16T15:25:51.811Z,2.30
2018-02-16T15:28:18.579Z,2.73
2018-02-16T15:30:45.353Z,2.63
2018-02-16T15:33:12.284Z,3.20
2018-02-16T15:35:40.470Z,3.20
2018-02-16T15:38:10.235Z,3.53
2018-02-16T15:40:37.956Z,3.63
2018-02-16T15:43:06.821Z,3.70
2018-02-16T15:45:35.554Z,3.40
2018-02-16T15:48:05.624Z,2.90
2018-02-16T15:50:34.834Z,4.70
2018-02-16T15:53:02.165Z,3.47
2018-02-16T15:55:29.557Z,4.77
2018-02-16T15:57:56.614Z,3.43
2018-02-16T16:00:23.863Z,3.30
2018-02-16T16:02:51.536Z,3.43
2018-02-16T16:05:18.902Z,3.60
2018-02-16T16:07:46.178Z,3.37
2018-02-16T16:10:14.946Z,3.60
2018-02-16T16:12:42.285Z,2.50
2018-02-16T16:15:17.777Z,4.00
2018-02-16T16:17:47.531Z,3.97
2018-02-16T16:20:18.173Z,3.30
2018-02-16T16:22:45.068Z,3.97
2018-02-16T16:25:12.061Z,2.80
2018-02-16T16:27:38.765Z,3.50
2018-02-16T16:30:05.538Z,3.73
2018-02-16T16:32:32.254Z,3.83
2018-02-16T16:34:59.008Z,4.07
2018-02-16T16:37:25.757Z,4.40
2018-02-16T16:39:52.501Z,3.97
2018-02-16T16:42:19.170Z,5.00
2018-02-16T16:44:45.865Z,4.83
2018-02-16T16:47:12.550Z,5.10
2018-02-16T16:49:39.275Z,5.70
2018-02-16T16:52:06.000Z,5.70
2018-02-16T16:54:32.810Z,5.83
2018-02-16T16:56:59.548Z,6.10
2018-02-16T16:59:26.253Z,5.47
2018-02-16T17:01:52.958Z,5.37
2018-02-16T17:04:19.801Z,6.10
2018-02-16T17:06:46.542Z,6.50
2018-02-16T17:09:13.274Z,6.37
2018-02-16T17:11:40.010Z,5.80
2018-02-16T17:14:06.716Z,6.40
2018-02-16T17:16:33.424Z,6.10
2018-02-16T17:19:00.170Z,5.67
2018-02-16T17:21:26.870Z,5.17
2018-02-16T17:23:53.685Z,5.67
2018-02-16T17:26:20.508Z,6.13
2018-02-16T17:28:47.246Z,6.00
2018-02-16T17:31:13.938Z,6.03
2018-02-16T17:33:40.677Z,6.33
2018-02-16T17:36:07.418Z,6.43
2018-02-16T17:38:34.137Z,7.80
2018-02-16T17:41:00.900Z,6.63
2018-02-16T17:43:27.564Z,5.63
2018-02-16T17:45:54.369Z,6.57
2018-02-16T17:48:21.137Z,7.17
2018-02-16T17:50:47.871Z,8.07
2018-02-16T17:53:14.548Z,7.00
2018-02-16T17:55:41.513Z,6.57
2018-02-16T17:58:08.255Z,7.20
2018-02-16T18:00:35.349Z,8.60
2018-02-16T18:03:02.047Z,9.20
2018-02-16T18:05:29.057Z,9.17
2018-02-16T18:07:55.779Z,9.10
2018-02-16T18:10:30.648Z,7.30
2018-02-16T18:12:57.406Z,8.47
2018-02-16T18:15:24.110Z,9.57
2018-02-16T18:17:50.929Z,10.07
2018-02-16T18:20:17.830Z,10.13
2018-02-16T18:22:45.398Z,9.43
2018-02-16T18:25:12.116Z,10.13
2018-02-16T18:27:38.793Z,9.93
2018-02-16T18:30:05.726Z,10.50
2018-02-16T18:32:32.452Z,10.87
2018-02-16T18:34:59.117Z,10.70
2018-02-16T18:37:25.944Z,9.60
2018-02-16T18:40:09.326Z,9.57
2018-02-16T18:42:36.139Z,9.17
2018-02-16T18:45:03.043Z,8.90
2018-02-16T18:47:29.829Z,9.00
2018-02-16T18:49:56.718Z,9.20
2018-02-16T18:52:24.872Z,8.30
2018-02-16T18:54:52.393Z,10.03
2018-02-16T18:57:22.713Z,10.03
2018-02-16T18:59:49.431Z,9.70
2018-02-16T19:02:16.383Z,11.90
2018-02-16T19:04:43.402Z,9.63
2018-02-16T19:07:11.054Z,9.73
2018-02-16T19:09:38.481Z,9.50
2018-02-16T19:12:05.854Z,8.83
2018-02-16T19:14:33.713Z,9.90
2018-02-16T19:17:01.909Z,9.13
2018-02-16T19:19:30.587Z,9.57
2018-02-16T19:21:57.307Z,10.90
2018-02-16T19:24:24.009Z,9.77
2018-02-16T19:26:50.778Z,10.67
2018-02-16T19:29:17.666Z,10.47
2018-02-16T19:31:44.403Z,11.60
2018-02-16T19:34:11.105Z,9.80
2018-02-16T19:36:37.819Z,10.50
2018-02-16T19:39:04.538Z,10.63
2018-02-16T19:41:32.830Z,10.83
2018-02-16T19:43:59.745Z,9.93
2018-02-16T19:46:27.410Z,11.07
2018-02-16T19:48:54.122Z,11.00
2018-02-16T19:51:21.206Z,10.20
2018-02-16T19:53:47.925Z,9.90
2018-02-16T19:56:14.688Z,10.60
2018-02-16T19:58:41.418Z,9.13
2018-02-16T20:01:08.101Z,9.67
2018-02-16T20:03:34.861Z,11.33
2018-02-16T20:06:01.845Z,10.83
2018-02-16T20:08:28.555Z,11.27
2018-02-16T20:10:55.282Z,11.50
2018-02-16T20:13:22.007Z,11.10
2018-02-16T20:15:48.745Z,12.77
2018-02-16T20:18:15.459Z,9.90
2018-02-16T20:20:42.154Z,11.83
2018-02-16T20:23:08.879Z,12.00
2018-02-16T20:25:35.583Z,11.80
2018-02-16T20:28:02.326Z,11.17
2018-02-16T20:30:29.082Z,11.40
2018-02-16T20:32:55.877Z,11.00
2018-02-16T20:35:22.575Z,11.27
2018-02-16T20:37:49.415Z,10.80
2018-02-16T20:40:16.242Z,12.10
2018-02-16T20:42:42.984Z,11.60
2018-02-16T20:45:10.502Z,11.03
2018-02-16T20:47:37.566Z,11.87
2018-02-16T20:50:04.351Z,10.77
2018-02-16T20:52:31.097Z,11.83
2018-02-16T20:54:57.861Z,12.77
2018-02-16T20:57:24.586Z,12.90
2018-02-16T20:59:51.378Z,11.83
2018-02-16T21:02:18.174Z,11.40
2018-02-16T21:04:44.946Z,11.80
2018-02-16T21:07:11.689Z,11.40
2018-02-16T21:09:38.400Z,12.27
2018-02-16T21:12:05.120Z,11.70
2018-02-16T21:14:31.837Z,11.20
2018-02-16T21:16:59.378Z,11.23
2018-02-16T21:19:26.524Z,12.57
2018-02-16T21:21:53.345Z,11.70
2018-02-16T21:24:20.089Z,11.23
2018-02-16T21:26:46.811Z,11.37
2018-02-16T21:29:13.684Z,12.07
2018-02-16T21:31:40.454Z,11.90
2018-02-16T21:34:07.190Z,11.07
2018-02-16T21:36:33.986Z,11.43
2018-02-16T21:39:00.849Z,12.20
2018-02-16T21:41:27.890Z,12.10
2018-02-16T21:43:54.685Z,12.03
2018-02-16T21:46:21.410Z,12.80
2018-02-16T21:48:48.121Z,12.80
2018-02-16T21:51:14.878Z,12.90
2018-02-16T21:53:41.602Z,13.53
2018-02-16T21:56:08.318Z,13.07
2018-02-16T21:58:35.039Z,12.50
2018-02-16T22:01:01.766Z,12.63
2018-02-16T22:03:28.479Z,13.40
2018-02-16T22:05:55.174Z,13.13
2018-02-16T22:08:21.962Z,12.90
2018-02-16T22:10:48.711Z,13.13
2018-02-16T22:13:15.401Z,13.27
2018-02-16T22:15:42.124Z,12.43
2018-02-16T22:18:10.202Z,13.70
2018-02-16T22:20:37.894Z,12.60
2018-02-16T22:23:04.591Z,14.73
2018-02-16T22:25:31.318Z,14.10
2018-02-16T22:27:58.177Z,14.07
2018-02-16T22:30:24.922Z,14.33
2018-02-16T22:32:51.655Z,13.67
2018-02-16T22:35:18.376Z,14.60
2018-02-16T22:37:45.086Z,16.00
2018-02-16T22:40:11.876Z,14.90
2018-02-16T22:42:39.351Z,13.70
2018-02-16T22:45:06.194Z,13.43
2018-02-16T22:47:32.969Z,14.20
2018-02-16T22:49:59.968Z,14.50
2018-02-16T22:52:26.837Z,14.53
2018-02-16T22:54:53.533Z,16.93
2018-02-16T22:57:20.290Z,15.50
2018-02-16T22:59:46.997Z,15.40
2018-02-16T23:02:13.815Z,15.83
2018-02-16T23:04:40.556Z,14.20
2018-02-16T23:07:07.260Z,15.03
2018-02-16T23:09:33.956Z,15.87
2018-02-16T23:12:00.734Z,15.03
2018-02-16T23:14:27.437Z,15.47
2018-02-16T23:16:54.111Z,14.97
2018-02-16T23:19:20.864Z,15.17
2018-02-16T23:21:47.743Z,15.00
2018-02-16T23:24:14.458Z,15.67
2018-02-16T23:26:41.176Z,15.40
2018-02-16T23:29:08.007Z,16.33
2018-02-16T23:31:34.798Z,15.47
2018-02-16T23:34:01.544Z,15.57
2018-02-16T23:36:28.286Z,15.87
2018-02-16T23:38:55.114Z,15.33
2018-02-16T23:41:21.859Z,16.70
2018-02-16T23:43:48.542Z,17.63
2018-02-16T23:46:15.274Z,17.60
2018-02-16T23:48:42.017Z,17.10
2018-02-16T23:51:08.746Z,16.73
2018-02-16T23:53:35.614Z,16.93
2018-02-16T23:56:02.416Z,17.03
2018-02-16T23:58:29.090Z,16.47
